• Join FlightAware (Why Join?)
  • Login
  • US Flag 
08:07AM EDT


 

Airport Tracker/Info


-or-


 

Live Flight TrackerFlight Track Log ✈ SKW5631 ✈ 09-Jun-2013 ✈ KSFO - KBUR

Flight Track Log - Related Links

Times and Time Zones

All times are in EDT time to prevent confusion due to time zone crossing. See the SKW5631 flight status page for this flight to view local times or setup timezone preferences in your user account.

Time Position Orientation Groundspeed Altitude Reporting Facility
EDT Latitude Longitude Course Direction KTS MPH feet Rate Location/Type
10:58PM 37.2291 -121.8904 135° Southeast  Level Estimated
10:59PM 37.1508 -121.7941 136° Southeast  Level Estimated
11:00PM 37.0725 -121.6979 136° Southeast  Level Estimated
11:01PM 36.9941 -121.6020 136° Southeast  Level Estimated
11:02PM 36.9156 -121.5062 136° Southeast  Level Estimated
11:03PM 36.8371 -121.4106 136° Southeast  Level Estimated
11:04PM 36.7584 -121.3153 136° Southeast  Level Estimated
11:05PM 36.6797 -121.2201 136° Southeast  Level Estimated
11:06PM 36.6010 -121.1251 136° Southeast  Level Estimated
11:07PM 36.5221 -121.0303 136° Southeast  Level Estimated
11:08PM 36.4432 -120.9358 136° Southeast  Level Estimated
11:09PM 36.3642 -120.8413 136° Southeast  Level Estimated
11:10PM 36.2851 -120.7471 136° Southeast  Level Estimated
11:11PM 36.2060 -120.6531 136° Southeast  Level Estimated
11:12PM 36.1267 -120.5593 136° Southeast  Level Estimated
11:13PM 36.0474 -120.4657 136° Southeast  Level Estimated
11:14PM 35.9680 -120.3722 136° Southeast  Level Estimated
11:15PM 35.8886 -120.2789 136° Southeast  Level Estimated
11:16PM 35.8091 -120.1859 136° Southeast  Level Estimated
11:17PM 35.7295 -120.0930 137° Southeast  Level Estimated
11:18PM 35.6498 -120.0003 137° Southeast  Level Estimated
11:19PM 35.5701 -119.9078 137° Southeast  Level Estimated
11:20PM 35.4903 -119.8154 137° Southeast  Level Estimated
11:21PM 35.4104 -119.7233 137° Southeast  Level Estimated
11:22PM 35.3305 -119.6313 137° Southeast  Level Estimated
11:23PM 35.2505 -119.5395 137° Southeast  Level Estimated
11:24PM 35.1704 -119.4479 137° Southeast  Level Estimated
11:25PM 35.0903 -119.3565 137° Southeast  Level Estimated
11:26PM 35.0100 -119.2653 137° Southeast  Level Estimated
11:27PM 34.9298 -119.1742 137° Southeast  Level Estimated
11:28PM 34.8494 -119.0833 137° Southeast  Level Estimated
11:29PM 34.7690 -118.9926 137° Southeast  Level Estimated
11:30PM 34.6885 -118.9021 137° Southeast  Level Estimated
11:31PM 34.6079 -118.8117 137° Southeast  Level Estimated
11:32PM 34.5273 -118.7215 137° Southeast  Level Estimated
11:33PM 34.4466 -118.6315 137° Southeast  Level Estimated
11:34PM 34.3659 -118.5417 137° Southeast  Level Estimated
11:35PM 34.2851 -118.4520 137° Southeast  Level Estimated
11:36PM 34.2042 -118.3625 138° Southeast  Level Estimated
11:37PM 34.2007 -118.3587 138° Southeast  Level Estimated
11:38PM 34.2007 -118.3587 140° Southeast  Level Estimated
11:39PM 34.2007 -118.3587 140° Southeast  Level Estimated
11:40PM 34.2007 -118.3587 140° Southeast  Level Estimated
11:41PM 34.2007 -118.3587 140° Southeast  Level Estimated
11:42PM 34.2007 -118.3587 140° Southeast  Level Estimated
11:43PM 34.2007 -118.3587 140° Southeast  Level Estimated
11:44PM 34.2007 -118.3587 140° Southeast  Level Estimated
11:45PM 34.2007 -118.3587 140° Southeast  Level Estimated
11:46PM 34.2007 -118.3587 140° Southeast  Level Estimated
11:47PM 34.2007 -118.3587 140° Southeast  Level Estimated
11:48PM 34.2007 -118.3587 140° Southeast  Level Estimated
11:49PM 34.2007 -118.3587 140° Southeast  Level Estimated
11:50PM 34.2007 -118.3587 140° Southeast  Level Estimated
11:51PM 34.2007 -118.3587 140° Southeast  Level Estimated